Time;durP1;ratioP1;P1;durP2;ratioP2;P2;SDS_P1;SDS_P2;PMS_P1;PMS_P2;Temp;Humidity;BMP_temperature;BMP_pressure;BME280_temperature;BME280_humidity;BME280_pressure;Samples;Min_cycle;Max_cycle;Signal;HPM_P1;HPM_P2
2021/04/05 00:01:35;;;;;;;;;;;18.30;60.00;;;;;;5036115;28;20286;-75
2021/04/05 00:04:01;;;;;;;;;;;18.30;60.00;;;;;;5032101;28;19919;-75
2021/04/05 00:06:26;;;;;;;;;;;18.30;60.00;;;;;;5029403;28;19914;-75
2021/04/05 00:08:52;;;;;;;;;;;18.30;60.00;;;;;;5023308;28;19913;-75
2021/04/05 00:11:18;;;;;;;;;;;18.30;60.00;;;;;;5068871;28;19913;-76
2021/04/05 00:13:44;;;;;;;;;;;18.30;60.00;;;;;;5052749;28;19956;-75
2021/04/05 00:16:10;;;;;;;;;;;18.30;60.00;;;;;;5036451;28;20006;-75
2021/04/05 00:18:36;;;;;;;;;;;18.30;60.00;;;;;;5049906;28;19916;-75
2021/04/05 00:21:11;;;;;;;;;;;18.30;60.00;;;;;;5036213;28;19917;-75
2021/04/05 00:23:36;;;;;;;;;;;18.30;60.00;;;;;;5040409;28;19913;-76
2021/04/05 00:26:02;;;;;;;;;;;18.30;60.00;;;;;;5021887;28;20385;-75
2021/04/05 00:28:28;;;;;;;;;;;18.30;60.00;;;;;;5042568;28;19935;-75
2021/04/05 00:30:54;;;;;;;;;;;18.30;60.00;;;;;;5049170;28;20425;-75
2021/04/05 00:33:19;;;;;;;;;;;18.30;60.00;;;;;;5056847;28;19913;-75
2021/04/05 00:35:45;;;;;;;;;;;18.30;60.00;;;;;;5044640;28;20011;-75
2021/04/05 00:38:11;;;;;;;;;;;18.30;60.10;;;;;;5041192;28;19970;-75
2021/04/05 00:40:45;;;;;;;;;;;18.30;60.00;;;;;;5049584;28;20420;-76
2021/04/05 00:43:12;;;;;;;;;;;18.20;60.10;;;;;;5040033;28;19929;-75
2021/04/05 00:45:38;;;;;;;;;;;18.20;60.10;;;;;;5028614;28;19908;-75
2021/04/05 00:48:04;;;;;;;;;;;18.20;60.00;;;;;;5029493;28;19936;-75
2021/04/05 00:50:30;;;;;;;;;;;18.20;60.10;;;;;;5042943;28;19913;-76
2021/04/05 00:52:58;;;;;;;;;;;18.20;60.10;;;;;;5054985;28;19913;-75
2021/04/05 00:55:24;;;;;;;;;;;18.30;60.10;;;;;;5033106;28;19913;-75
2021/04/05 00:57:50;;;;;;;;;;;18.20;60.10;;;;;;5033038;28;20383;-75
2021/04/05 01:00:36;;;;;;;;;;;18.20;60.10;;;;;;5027251;28;20020;-76
2021/04/05 01:03:02;;;;;;;;;;;18.30;60.10;;;;;;5027153;28;19913;-76
2021/04/05 01:05:28;;;;;;;;;;;18.20;60.10;;;;;;5035240;28;19961;-75
2021/04/05 01:07:53;;;;;;;;;;;18.20;60.10;;;;;;5054669;28;20003;-75
2021/04/05 01:10:20;;;;;;;;;;;18.20;60.10;;;;;;5046519;28;19913;-75
2021/04/05 01:12:45;;;;;;;;;;;18.20;60.10;;;;;;5026926;28;19967;-75
2021/04/05 01:15:12;;;;;;;;;;;18.20;60.10;;;;;;5039307;28;19920;-75
2021/04/05 01:17:38;;;;;;;;;;;18.20;60.10;;;;;;5050762;28;19996;-76
2021/04/05 01:20:08;;;;;;;;;;;18.20;60.10;;;;;;5045659;28;19975;-75
2021/04/05 01:22:33;;;;;;;;;;;18.20;60.10;;;;;;5033248;28;19931;-75
2021/04/05 01:24:59;;;;;;;;;;;18.20;60.10;;;;;;5058468;28;20286;-72
2021/04/05 01:27:24;;;;;;;;;;;18.30;60.10;;;;;;5047264;28;19917;-73
2021/04/05 01:29:50;;;;;;;;;;;18.20;60.10;;;;;;5049571;28;19912;-73
2021/04/05 01:32:15;;;;;;;;;;;18.20;60.10;;;;;;5056892;28;20018;-72
2021/04/05 01:34:41;;;;;;;;;;;18.20;60.10;;;;;;5052371;28;19960;-73
2021/04/05 01:37:06;;;;;;;;;;;18.20;60.10;;;;;;5034421;28;20472;-73
2021/04/05 01:39:35;;;;;;;;;;;18.20;60.10;;;;;;5050421;28;19920;-73
2021/04/05 01:42:01;;;;;;;;;;;18.20;60.10;;;;;;5030517;28;19916;-73
2021/04/05 01:44:27;;;;;;;;;;;18.20;60.10;;;;;;5040992;28;19921;-72
2021/04/05 01:46:52;;;;;;;;;;;18.20;60.10;;;;;;5025121;28;19913;-73
2021/04/05 01:49:18;;;;;;;;;;;18.20;60.10;;;;;;5039741;28;19913;-74
2021/04/05 01:51:43;;;;;;;;;;;18.20;60.10;;;;;;5050715;28;19913;-73
2021/04/05 01:54:09;;;;;;;;;;;18.20;60.10;;;;;;5034195;28;19960;-72
2021/04/05 01:56:35;;;;;;;;;;;18.20;60.10;;;;;;5045170;28;19916;-73
2021/04/05 01:59:00;;;;;;;;;;;18.20;60.10;;;;;;5043331;28;20000;-73
2021/04/05 02:01:30;;;;;;;;;;;18.20;60.10;;;;;;5064356;28;19916;-73
2021/04/05 02:03:55;;;;;;;;;;;18.20;60.10;;;;;;5039522;28;19999;-73
2021/04/05 02:06:47;;;;;;;;;;;18.20;60.10;;;;;;5024756;28;20013;-73
2021/04/05 02:09:17;;;;;;;;;;;18.20;60.20;;;;;;5031625;28;19913;-73
2021/04/05 02:11:43;;;;;;;;;;;18.20;60.20;;;;;;5053081;28;19937;-73
2021/04/05 02:14:09;;;;;;;;;;;18.20;60.20;;;;;;5042791;28;19913;-73
2021/04/05 02:16:35;;;;;;;;;;;18.10;60.10;;;;;;5041567;28;20003;-73
2021/04/05 02:19:01;;;;;;;;;;;18.20;60.20;;;;;;5048928;28;20013;-73
2021/04/05 02:21:28;;;;;;;;;;;18.20;60.20;;;;;;5044928;28;20011;-73
2021/04/05 02:23:54;;;;;;;;;;;18.20;60.20;;;;;;5027791;28;19913;-73
2021/04/05 02:26:21;;;;;;;;;;;18.20;60.20;;;;;;5030029;28;20278;-73
2021/04/05 02:28:48;;;;;;;;;;;18.20;60.20;;;;;;5030711;28;19913;-74
2021/04/05 02:31:15;;;;;;;;;;;18.20;60.20;;;;;;5029150;28;19913;-73
2021/04/05 02:33:42;;;;;;;;;;;18.20;60.20;;;;;;5032699;28;19920;-72
2021/04/05 02:36:09;;;;;;;;;;;18.10;60.20;;;;;;5033158;28;19917;-72
2021/04/05 02:38:35;;;;;;;;;;;18.20;60.10;;;;;;5045742;28;19917;-73
2021/04/05 02:41:01;;;;;;;;;;;18.20;60.10;;;;;;5049889;28;19962;-73
2021/04/05 02:43:26;;;;;;;;;;;18.20;60.20;;;;;;5029355;28;20008;-73
2021/04/05 02:45:52;;;;;;;;;;;18.10;60.10;;;;;;5018787;28;19920;-73
2021/04/05 02:48:19;;;;;;;;;;;18.10;60.20;;;;;;5031083;28;20290;-74
2021/04/05 02:50:45;;;;;;;;;;;18.10;60.20;;;;;;5029278;28;19918;-73
2021/04/05 02:53:11;;;;;;;;;;;18.10;60.20;;;;;;5021910;28;19914;-72
2021/04/05 02:55:37;;;;;;;;;;;18.10;60.20;;;;;;5031466;28;20362;-72
2021/04/05 02:58:06;;;;;;;;;;;18.10;60.20;;;;;;5025187;28;19963;-73
2021/04/05 03:00:31;;;;;;;;;;;18.10;60.20;;;;;;5027416;28;19924;-73
2021/04/05 03:03:02;;;;;;;;;;;18.10;60.20;;;;;;5031554;28;19914;-73
2021/04/05 03:05:28;;;;;;;;;;;18.10;60.20;;;;;;5033206;28;19913;-73
2021/04/05 03:07:54;;;;;;;;;;;18.20;60.20;;;;;;5026129;28;20004;-73
2021/04/05 03:10:21;;;;;;;;;;;18.10;60.20;;;;;;5037382;28;19913;-73
2021/04/05 03:12:48;;;;;;;;;;;18.10;60.20;;;;;;5030128;28;19913;-75
2021/04/05 03:15:14;;;;;;;;;;;18.10;60.20;;;;;;5018658;28;20418;-73
2021/04/05 03:17:40;;;;;;;;;;;18.20;60.20;;;;;;5017095;28;19945;-73
2021/04/05 03:20:14;;;;;;;;;;;18.10;60.20;;;;;;5033232;28;19923;-73
2021/04/05 03:22:40;;;;;;;;;;;18.10;60.20;;;;;;5031290;28;20000;-73
2021/04/05 03:25:12;;;;;;;;;;;18.10;60.20;;;;;;5028885;28;20038;-72
2021/04/05 03:27:38;;;;;;;;;;;18.10;60.20;;;;;;5030805;28;20375;-73
2021/04/05 03:30:04;;;;;;;;;;;18.10;60.20;;;;;;5019164;28;19913;-72
2021/04/05 03:32:29;;;;;;;;;;;18.10;60.20;;;;;;5031991;28;19924;-72
2021/04/05 03:34:57;;;;;;;;;;;18.10;60.20;;;;;;5061947;28;20006;-73
2021/04/05 03:37:23;;;;;;;;;;;18.10;60.20;;;;;;5029150;28;19920;-72
2021/04/05 03:39:52;;;;;;;;;;;18.10;60.20;;;;;;5032875;28;19917;-72
2021/04/05 03:42:25;;;;;;;;;;;18.10;60.20;;;;;;5029113;28;19917;-74
2021/04/05 03:44:57;;;;;;;;;;;18.10;60.20;;;;;;5033839;28;19913;-72
2021/04/05 03:47:27;;;;;;;;;;;18.10;60.20;;;;;;5021610;28;20058;-73
2021/04/05 03:49:55;;;;;;;;;;;18.10;60.20;;;;;;5027515;28;19925;-73
2021/04/05 03:52:26;;;;;;;;;;;18.10;60.20;;;;;;5042201;28;19920;-73
2021/04/05 03:54:58;;;;;;;;;;;18.10;60.20;;;;;;5039547;28;19917;-73
2021/04/05 03:57:26;;;;;;;;;;;18.10;60.20;;;;;;5045778;28;20362;-73
2021/04/05 03:59:53;;;;;;;;;;;18.10;60.20;;;;;;5053441;28;19927;-73
2021/04/05 04:02:20;;;;;;;;;;;18.10;60.20;;;;;;5034672;28;20004;-73
2021/04/05 04:04:55;;;;;;;;;;;18.10;60.30;;;;;;5029072;28;19913;-73
2021/04/05 04:07:34;;;;;;;;;;;18.10;60.20;;;;;;5049526;28;19948;-73
2021/04/05 04:10:02;;;;;;;;;;;18.00;60.20;;;;;;5022276;28;19935;-73
2021/04/05 04:12:30;;;;;;;;;;;18.10;60.30;;;;;;5032107;28;20370;-75
2021/04/05 04:14:56;;;;;;;;;;;18.10;60.30;;;;;;5047315;28;20397;-74
2021/04/05 04:17:22;;;;;;;;;;;18.10;60.30;;;;;;5034984;28;19913;-76
2021/04/05 04:19:48;;;;;;;;;;;18.00;60.30;;;;;;5046898;28;19924;-77
2021/04/05 04:22:14;;;;;;;;;;;18.10;60.30;;;;;;5048053;28;19918;-76
2021/04/05 04:24:40;;;;;;;;;;;18.00;60.30;;;;;;5036970;28;19913;-76
2021/04/05 04:27:06;;;;;;;;;;;18.10;60.30;;;;;;5029255;28;19917;-76
2021/04/05 04:29:36;;;;;;;;;;;18.10;60.30;;;;;;5018050;28;19917;-76
2021/04/05 04:32:02;;;;;;;;;;;18.10;60.30;;;;;;5060078;28;19919;-78
2021/04/05 04:34:27;;;;;;;;;;;18.10;60.30;;;;;;5065542;28;19913;-75
2021/04/05 04:36:53;;;;;;;;;;;18.10;60.30;;;;;;5035583;28;19912;-76
2021/04/05 04:39:19;;;;;;;;;;;18.10;60.30;;;;;;5035460;28;20278;-76
2021/04/05 04:41:46;;;;;;;;;;;18.00;60.30;;;;;;5045970;28;20405;-76
2021/04/05 04:44:12;;;;;;;;;;;18.10;60.30;;;;;;5028753;28;19921;-77
2021/04/05 04:46:38;;;;;;;;;;;18.00;60.30;;;;;;5018661;28;19920;-75
2021/04/05 04:49:06;;;;;;;;;;;18.10;60.30;;;;;;5018030;28;19913;-76
2021/04/05 04:51:32;;;;;;;;;;;18.00;60.30;;;;;;5057943;28;19913;-76
2021/04/05 04:53:59;;;;;;;;;;;18.00;60.30;;;;;;5035794;28;19921;-74
2021/04/05 04:56:25;;;;;;;;;;;18.10;60.30;;;;;;5047498;28;19974;-74
2021/04/05 04:58:51;;;;;;;;;;;18.10;60.30;;;;;;5029599;28;20382;-73
2021/04/05 05:01:17;;;;;;;;;;;18.10;60.30;;;;;;5029136;28;19917;-74
2021/04/05 05:03:53;;;;;;;;;;;18.00;60.30;;;;;;5036033;28;19952;-73
2021/04/05 05:06:20;;;;;;;;;;;18.10;60.30;;;;;;5044598;28;19920;-74
2021/04/05 05:08:46;;;;;;;;;;;18.10;60.30;;;;;;5034335;28;20383;-74
2021/04/05 05:11:11;;;;;;;;;;;18.00;60.30;;;;;;5031419;28;19999;-74
2021/04/05 05:13:37;;;;;;;;;;;18.10;60.20;;;;;;5022519;28;19913;-73
2021/04/05 05:16:06;;;;;;;;;;;18.10;60.20;;;;;;5033775;28;19913;-74
2021/04/05 05:18:38;;;;;;;;;;;18.10;60.30;;;;;;5025198;28;19923;-74
2021/04/05 05:21:08;;;;;;;;;;;18.10;60.20;;;;;;5035754;28;19921;-74
2021/04/05 05:23:36;;;;;;;;;;;18.10;60.20;;;;;;5050789;28;19913;-74
2021/04/05 05:26:05;;;;;;;;;;;18.10;60.20;;;;;;5046681;28;19912;-74
2021/04/05 05:28:31;;;;;;;;;;;18.10;60.20;;;;;;5040259;28;19967;-74
2021/04/05 05:30:57;;;;;;;;;;;18.10;60.20;;;;;;5025752;28;19913;-74
2021/04/05 05:33:22;;;;;;;;;;;18.10;60.10;;;;;;5035181;28;19912;-73
2021/04/05 05:35:51;;;;;;;;;;;18.10;60.10;;;;;;5041118;28;20376;-74
2021/04/05 05:38:17;;;;;;;;;;;18.10;60.10;;;;;;5040479;28;19917;-74
2021/04/05 05:40:45;;;;;;;;;;;18.10;60.10;;;;;;5046332;28;19917;-74
2021/04/05 05:43:29;;;;;;;;;;;18.10;60.00;;;;;;5040083;28;20047;-73
2021/04/05 05:46:13;;;;;;;;;;;18.20;60.00;;;;;;5043074;28;19921;-74
2021/04/05 05:48:38;;;;;;;;;;;18.10;59.90;;;;;;5066820;28;19913;-73
2021/04/05 05:51:13;;;;;;;;;;;18.20;59.90;;;;;;5062693;28;20389;-73
2021/04/05 05:53:42;;;;;;;;;;;18.20;59.90;;;;;;5032076;28;19913;-74
2021/04/05 05:56:28;;;;;;;;;;;18.20;59.80;;;;;;5060805;28;20350;-73
2021/04/05 05:59:09;;;;;;;;;;;18.20;59.90;;;;;;5050912;28;19917;-73
2021/04/05 06:01:48;;;;;;;;;;;18.20;59.90;;;;;;5064705;28;19917;-73
2021/04/05 06:04:32;;;;;;;;;;;18.20;59.90;;;;;;5038612;28;19919;-73
2021/04/05 06:07:05;;;;;;;;;;;18.10;59.90;;;;;;5054172;28;19992;-74
2021/04/05 06:09:43;;;;;;;;;;;18.10;59.90;;;;;;5046489;28;19920;-75
2021/04/05 06:12:13;;;;;;;;;;;18.20;59.90;;;;;;5042182;28;20297;-75
2021/04/05 06:14:54;;;;;;;;;;;18.20;60.00;;;;;;5033452;28;19913;-75
2021/04/05 06:17:31;;;;;;;;;;;18.20;59.90;;;;;;5036179;28;19917;-75
2021/04/05 06:20:05;;;;;;;;;;;18.20;59.90;;;;;;5032599;28;19959;-74
2021/04/05 06:22:31;;;;;;;;;;;18.20;59.90;;;;;;5015431;28;19924;-75
2021/04/05 06:24:59;;;;;;;;;;;18.20;59.80;;;;;;5055360;28;19913;-74
2021/04/05 06:27:44;;;;;;;;;;;18.20;59.80;;;;;;5044647;28;19924;-74
2021/04/05 06:30:12;;;;;;;;;;;18.20;59.80;;;;;;5049088;28;19964;-74
2021/04/05 06:32:39;;;;;;;;;;;18.20;59.80;;;;;;5029258;28;20350;-74
2021/04/05 06:35:04;;;;;;;;;;;18.20;59.70;;;;;;5038143;28;19920;-75
2021/04/05 06:37:36;;;;;;;;;;;18.20;59.70;;;;;;5045382;28;20004;-75
2021/04/05 06:40:09;;;;;;;;;;;18.20;59.70;;;;;;5025888;28;19924;-76
2021/04/05 06:42:46;;;;;;;;;;;18.20;59.60;;;;;;4977720;28;1480290;-76
2021/04/05 06:45:50;;;;;;;;;;;18.20;59.60;;;;;;5025293;28;19912;-76
2021/04/05 06:48:35;;;;;;;;;;;18.30;59.60;;;;;;4952026;29;20004;-77
2021/04/05 06:51:00;;;;;;;;;;;18.30;59.50;;;;;;4952326;29;19918;-75
2021/04/05 06:53:38;;;;;;;;;;;18.30;59.50;;;;;;5000034;28;19914;-76
2021/04/05 06:56:10;;;;;;;;;;;18.30;59.40;;;;;;5033027;28;19994;-76
2021/04/05 06:58:39;;;;;;;;;;;18.30;59.40;;;;;;5032732;28;20402;-76
2021/04/05 07:01:08;;;;;;;;;;;18.30;59.30;;;;;;5039847;28;19917;-76
2021/04/05 07:03:57;;;;;;;;;;;18.30;59.30;;;;;;5038222;28;19920;-76
2021/04/05 07:06:35;;;;;;;;;;;18.30;59.30;;;;;;5032782;28;20383;-76
2021/04/05 07:09:11;;;;;;;;;;;18.30;59.30;;;;;;5031474;28;19928;-75
2021/04/05 07:11:55;;;;;;;;;;;18.30;59.30;;;;;;5036779;28;20362;-76
2021/04/05 07:14:24;;;;;;;;;;;18.30;59.30;;;;;;5047830;28;20023;-76
2021/04/05 07:16:54;;;;;;;;;;;18.30;59.30;;;;;;5050546;28;19921;-77
2021/04/05 07:19:19;;;;;;;;;;;18.30;59.30;;;;;;5030488;28;19956;-76
2021/04/05 07:21:52;;;;;;;;;;;18.30;59.20;;;;;;5062915;28;20386;-76
2021/04/05 07:24:24;;;;;;;;;;;18.30;59.20;;;;;;5025227;28;19920;-76
2021/04/05 07:26:56;;;;;;;;;;;18.40;59.10;;;;;;5048023;28;20027;-75
2021/04/05 07:29:24;;;;;;;;;;;18.40;59.10;;;;;;5047803;28;20355;-77
2021/04/05 07:32:01;;;;;;;;;;;18.40;59.00;;;;;;5033380;28;20000;-76
2021/04/05 07:34:27;;;;;;;;;;;18.40;59.00;;;;;;5032846;28;20003;-81
2021/04/05 07:36:56;;;;;;;;;;;18.40;59.00;;;;;;5021968;28;20424;-78
2021/04/05 07:39:29;;;;;;;;;;;18.40;59.00;;;;;;5042904;28;20401;-78
2021/04/05 07:42:00;;;;;;;;;;;18.40;58.90;;;;;;5032126;28;19920;-77
2021/04/05 07:44:37;;;;;;;;;;;18.40;58.90;;;;;;5054028;28;20314;-78
2021/04/05 07:47:19;;;;;;;;;;;18.50;58.90;;;;;;5035493;28;19924;-78
2021/04/05 07:49:52;;;;;;;;;;;18.50;58.80;;;;;;5033433;28;19912;-76
2021/04/05 07:52:20;;;;;;;;;;;18.50;58.70;;;;;;5036891;28;19912;-78
2021/04/05 07:54:46;;;;;;;;;;;18.50;58.70;;;;;;5067630;28;19964;-76
2021/04/05 07:57:31;;;;;;;;;;;18.50;58.60;;;;;;5040436;28;19956;-76
2021/04/05 08:00:09;;;;;;;;;;;18.50;58.60;;;;;;5048440;28;19925;-76
2021/04/05 08:02:42;;;;;;;;;;;18.50;58.50;;;;;;5040548;28;19953;-76
2021/04/05 08:05:30;;;;;;;;;;;18.60;58.50;;;;;;5035119;28;20370;-76
2021/04/05 08:07:56;;;;;;;;;;;18.60;58.50;;;;;;5051718;28;20578;-75
2021/04/05 08:10:40;;;;;;;;;;;18.50;58.50;;;;;;5026806;28;19913;-76
2021/04/05 08:13:24;;;;;;;;;;;18.50;58.50;;;;;;5041859;28;19925;-76
2021/04/05 08:15:59;;;;;;;;;;;18.50;58.50;;;;;;5025556;28;19971;-76
2021/04/05 08:18:38;;;;;;;;;;;18.50;58.50;;;;;;5047057;28;19925;-75
2021/04/05 08:21:11;;;;;;;;;;;18.60;58.40;;;;;;5051922;28;19928;-75
2021/04/05 08:23:55;;;;;;;;;;;18.60;58.40;;;;;;5036556;28;19912;-76
2021/04/05 08:26:36;;;;;;;;;;;18.60;58.30;;;;;;5057193;28;19920;-75
2021/04/05 08:29:09;;;;;;;;;;;18.70;58.20;;;;;;5031296;28;19920;-76
2021/04/05 08:31:43;;;;;;;;;;;18.70;58.00;;;;;;5034168;28;20024;-76
2021/04/05 08:34:27;;;;;;;;;;;18.70;58.00;;;;;;5029419;28;19920;-76
2021/04/05 08:37:02;;;;;;;;;;;18.70;57.90;;;;;;5041623;28;20392;-76
2021/04/05 08:39:46;;;;;;;;;;;18.70;57.90;;;;;;5049344;28;19920;-76
2021/04/05 08:42:27;;;;;;;;;;;18.70;58.00;;;;;;5064261;28;20282;-76
2021/04/05 08:44:54;;;;;;;;;;;18.70;58.00;;;;;;5029779;28;19920;-76
2021/04/05 08:47:25;;;;;;;;;;;18.70;58.10;;;;;;5050411;28;19958;-76
2021/04/05 08:49:52;;;;;;;;;;;18.60;58.20;;;;;;5054327;28;19912;-76
2021/04/05 08:52:21;;;;;;;;;;;18.60;58.10;;;;;;5032919;28;19991;-76
2021/04/05 08:54:48;;;;;;;;;;;18.70;58.20;;;;;;5035714;28;19913;-75
2021/04/05 08:57:24;;;;;;;;;;;18.60;58.10;;;;;;5036012;28;20061;-76
2021/04/05 08:59:52;;;;;;;;;;;18.60;58.10;;;;;;5038044;28;19921;-75
2021/04/05 09:02:37;;;;;;;;;;;18.70;58.00;;;;;;5052108;28;19921;-76
2021/04/05 09:05:10;;;;;;;;;;;18.70;58.00;;;;;;5051869;28;19912;-76
2021/04/05 09:07:42;;;;;;;;;;;18.70;57.90;;;;;;5050776;28;19951;-75
2021/04/05 09:10:08;;;;;;;;;;;18.70;57.90;;;;;;5043077;28;19916;-75
2021/04/05 09:12:34;;;;;;;;;;;18.80;57.80;;;;;;5039648;28;19913;-75
2021/04/05 09:14:59;;;;;;;;;;;18.80;57.60;;;;;;5053937;28;19913;-75
2021/04/05 09:17:39;;;;;;;;;;;18.80;57.60;;;;;;5068249;22;19937;-74
2021/04/05 09:20:23;;;;;;;;;;;18.80;57.50;;;;;;4991955;28;19921;-74
2021/04/05 09:23:07;;;;;;;;;;;18.80;57.40;;;;;;4982698;28;20371;-73
2021/04/05 09:25:47;;;;;;;;;;;18.90;57.40;;;;;;5009705;28;19913;-73
2021/04/05 09:28:21;;;;;;;;;;;18.90;57.20;;;;;;5009931;28;19919;-73
2021/04/05 09:31:08;;;;;;;;;;;18.90;57.20;;;;;;5004472;28;20353;-73
2021/04/05 09:33:42;;;;;;;;;;;19.00;57.20;;;;;;4995985;28;19917;-74
2021/04/05 09:36:27;;;;;;;;;;;18.90;57.20;;;;;;4997780;28;20248;-75
2021/04/05 09:38:56;;;;;;;;;;;18.90;57.10;;;;;;4997636;28;19923;-74
2021/04/05 09:41:29;;;;;;;;;;;18.90;57.10;;;;;;4993691;28;19973;-75
2021/04/05 09:44:13;;;;;;;;;;;19.00;57.00;;;;;;4986907;28;20347;-75
2021/04/05 09:46:47;;;;;;;;;;;19.00;57.00;;;;;;5010892;28;19914;-75
2021/04/05 09:49:31;;;;;;;;;;;19.00;56.90;;;;;;5006290;28;19914;-75
2021/04/05 09:51:57;;;;;;;;;;;19.00;56.90;;;;;;4991799;28;19937;-75
2021/04/05 09:54:32;;;;;;;;;;;19.00;56.80;;;;;;4976250;28;20355;-75
2021/04/05 09:57:10;;;;;;;;;;;19.10;56.70;;;;;;5003504;28;19921;-75
2021/04/05 09:59:39;;;;;;;;;;;19.10;56.70;;;;;;4990993;28;20431;-75
2021/04/05 10:02:05;;;;;;;;;;;19.10;56.50;;;;;;4985398;28;19929;-75
2021/04/05 10:04:31;;;;;;;;;;;19.10;56.50;;;;;;5009227;28;19914;-76
2021/04/05 10:06:57;;;;;;;;;;;19.20;56.50;;;;;;4980352;28;19914;-76
2021/04/05 10:09:27;;;;;;;;;;;19.20;56.50;;;;;;5006595;28;19929;-75
2021/04/05 10:11:53;;;;;;;;;;;19.10;56.50;;;;;;4984793;28;20008;-75
2021/04/05 10:14:21;;;;;;;;;;;19.10;56.50;;;;;;4987870;28;19914;-75
2021/04/05 10:16:52;;;;;;;;;;;19.10;56.50;;;;;;5006463;28;19944;-75
2021/04/05 10:19:22;;;;;;;;;;;19.10;56.50;;;;;;4996577;28;19960;-76
2021/04/05 10:21:51;;;;;;;;;;;19.10;56.50;;;;;;4993399;28;20008;-75
2021/04/05 10:24:20;;;;;;;;;;;19.10;56.50;;;;;;4995677;28;19913;-75
2021/04/05 10:26:48;;;;;;;;;;;19.10;56.50;;;;;;5000127;28;19921;-75
2021/04/05 10:29:14;;;;;;;;;;;19.10;56.50;;;;;;5004318;28;19972;-75
2021/04/05 10:31:41;;;;;;;;;;;19.10;56.50;;;;;;5006963;28;19956;-74
2021/04/05 10:34:08;;;;;;;;;;;19.10;56.50;;;;;;4975028;28;19914;-75
2021/04/05 10:36:39;;;;;;;;;;;19.10;56.40;;;;;;4996317;28;19915;-75
2021/04/05 10:39:05;;;;;;;;;;;19.20;56.40;;;;;;4974109;28;19922;-75
2021/04/05 10:41:32;;;;;;;;;;;19.20;56.30;;;;;;4984990;28;20398;-75
2021/04/05 10:44:00;;;;;;;;;;;19.20;56.20;;;;;;4990409;28;19917;-75
2021/04/05 10:46:28;;;;;;;;;;;19.20;56.20;;;;;;4991958;28;20057;-75
2021/04/05 10:48:55;;;;;;;;;;;19.30;56.10;;;;;;4988891;28;19921;-75
2021/04/05 10:51:26;;;;;;;;;;;19.30;56.10;;;;;;4986791;28;20265;-74
2021/04/05 10:53:58;;;;;;;;;;;19.20;56.00;;;;;;4983978;28;19925;-74
2021/04/05 10:56:24;;;;;;;;;;;19.30;56.10;;;;;;5005264;28;19914;-75
2021/04/05 10:59:03;;;;;;;;;;;19.20;56.10;;;;;;4992143;28;19921;-75
2021/04/05 11:01:31;;;;;;;;;;;19.30;56.00;;;;;;4988859;28;20053;-76
2021/04/05 11:03:58;;;;;;;;;;;19.20;56.10;;;;;;4980291;28;19918;-75
2021/04/05 11:06:24;;;;;;;;;;;19.20;56.00;;;;;;4978437;28;19920;-75
2021/04/05 11:08:52;;;;;;;;;;;19.20;56.10;;;;;;4989051;28;20023;-75
2021/04/05 11:11:20;;;;;;;;;;;19.20;56.00;;;;;;4997941;28;19921;-75
2021/04/05 11:13:51;;;;;;;;;;;19.30;56.00;;;;;;4982605;28;19922;-75
2021/04/05 11:16:18;;;;;;;;;;;19.20;56.00;;;;;;4992256;28;19910;-75
2021/04/05 11:18:45;;;;;;;;;;;19.20;56.00;;;;;;4988105;28;19929;-75
2021/04/05 11:21:11;;;;;;;;;;;19.30;56.00;;;;;;4992931;28;19936;-74
2021/04/05 11:23:38;;;;;;;;;;;19.20;56.10;;;;;;4985488;28;20005;-74
2021/04/05 11:26:04;;;;;;;;;;;19.20;56.10;;;;;;4982375;28;19924;-75
2021/04/05 11:28:32;;;;;;;;;;;19.20;56.10;;;;;;4995674;28;19921;-77
2021/04/05 11:31:03;;;;;;;;;;;19.20;56.20;;;;;;4996516;28;19922;-77
2021/04/05 11:33:29;;;;;;;;;;;19.20;56.20;;;;;;4987651;28;19921;-77
2021/04/05 11:35:56;;;;;;;;;;;19.20;56.20;;;;;;4994404;28;20033;-74
2021/04/05 11:38:22;;;;;;;;;;;19.10;56.30;;;;;;4993422;28;19914;-74
2021/04/05 11:40:48;;;;;;;;;;;19.10;56.40;;;;;;4995215;28;20354;-75
2021/04/05 11:43:18;;;;;;;;;;;19.10;56.40;;;;;;5007625;28;20318;-77
2021/04/05 11:45:48;;;;;;;;;;;19.10;56.40;;;;;;4989156;28;19913;-76
2021/04/05 11:48:18;;;;;;;;;;;19.00;56.50;;;;;;4995891;28;20222;-76
2021/04/05 11:50:44;;;;;;;;;;;19.10;56.40;;;;;;4998972;28;19917;-79
2021/04/05 11:53:19;;;;;;;;;;;19.10;56.30;;;;;;4989631;28;19913;-75
2021/04/05 11:55:45;;;;;;;;;;;19.10;56.30;;;;;;5003908;28;19918;-76
2021/04/05 11:58:19;;;;;;;;;;;19.20;56.20;;;;;;4993409;28;20360;-74
2021/04/05 12:00:51;;;;;;;;;;;19.20;56.10;;;;;;5001186;28;19922;-74
2021/04/05 12:03:22;;;;;;;;;;;19.20;56.00;;;;;;4995713;28;19914;-76
2021/04/05 12:05:58;;;;;;;;;;;19.20;56.10;;;;;;4991013;28;20383;-75
2021/04/05 12:08:27;;;;;;;;;;;19.20;56.10;;;;;;4993696;28;20008;-74
2021/04/05 12:10:53;;;;;;;;;;;19.20;56.10;;;;;;4990753;28;20367;-74
2021/04/05 12:13:19;;;;;;;;;;;19.30;56.00;;;;;;5010442;28;20434;-76
2021/04/05 12:15:46;;;;;;;;;;;19.20;56.00;;;;;;4984412;28;20050;-76
2021/04/05 12:18:12;;;;;;;;;;;19.20;56.10;;;;;;4975594;28;19926;-74
2021/04/05 12:20:38;;;;;;;;;;;19.20;56.00;;;;;;5003145;28;19924;-75
2021/04/05 12:23:07;;;;;;;;;;;19.20;56.10;;;;;;4995068;28;19913;-74
2021/04/05 12:25:34;;;;;;;;;;;19.20;56.00;;;;;;5001318;28;19918;-76
2021/04/05 12:28:01;;;;;;;;;;;19.20;56.00;;;;;;4979628;28;19936;-77
2021/04/05 12:30:28;;;;;;;;;;;19.20;56.10;;;;;;4997946;28;19997;-74
2021/04/05 12:32:54;;;;;;;;;;;19.20;56.10;;;;;;4986899;28;20363;-75
2021/04/05 12:35:20;;;;;;;;;;;19.20;56.20;;;;;;4993598;28;19914;-75
2021/04/05 12:37:53;;;;;;;;;;;19.20;56.10;;;;;;5005738;28;19913;-75
2021/04/05 12:40:21;;;;;;;;;;;19.20;56.20;;;;;;4997756;28;20009;-74
2021/04/05 12:42:47;;;;;;;;;;;19.20;56.20;;;;;;5000155;28;19918;-76
2021/04/05 12:45:15;;;;;;;;;;;19.20;56.20;;;;;;4995022;28;20252;-76
2021/04/05 12:47:42;;;;;;;;;;;19.20;56.20;;;;;;4992534;28;19971;-76
2021/04/05 12:50:09;;;;;;;;;;;19.20;56.10;;;;;;4996449;28;19922;-76
2021/04/05 12:52:39;;;;;;;;;;;19.20;56.10;;;;;;4997061;28;20009;-76
2021/04/05 12:55:12;;;;;;;;;;;19.30;56.10;;;;;;4991575;28;20004;-76
2021/04/05 12:57:38;;;;;;;;;;;19.30;56.00;;;;;;5004607;28;19914;-76
2021/04/05 13:00:22;;;;;;;;;;;19.20;55.90;;;;;;4986118;28;20359;-76
2021/04/05 13:03:08;;;;;;;;;;;19.30;56.00;;;;;;4992928;28;19918;-75
2021/04/05 13:05:45;;;;;;;;;;;19.20;56.00;;;;;;4972829;28;20375;-76
2021/04/05 13:08:18;;;;;;;;;;;19.20;56.00;;;;;;4992939;28;20020;-76
2021/04/05 13:10:49;;;;;;;;;;;19.30;56.00;;;;;;4985841;28;19957;-76
2021/04/05 13:13:16;;;;;;;;;;;19.20;56.00;;;;;;5006619;28;19953;-76
2021/04/05 13:15:44;;;;;;;;;;;19.30;55.90;;;;;;4994589;28;19924;-75
2021/04/05 13:18:11;;;;;;;;;;;19.30;55.80;;;;;;4987118;28;19922;-76
2021/04/05 13:20:39;;;;;;;;;;;19.30;55.80;;;;;;4977865;28;19926;-76
2021/04/05 13:23:06;;;;;;;;;;;19.30;55.80;;;;;;4991661;28;19914;-76
2021/04/05 13:25:53;;;;;;;;;;;19.30;55.80;;;;;;4987283;28;20378;-77
2021/04/05 13:28:20;;;;;;;;;;;19.30;55.70;;;;;;4994415;28;19921;-77
2021/04/05 13:30:48;;;;;;;;;;;19.30;55.70;;;;;;4987401;28;19918;-76
2021/04/05 13:33:14;;;;;;;;;;;19.30;55.70;;;;;;4975382;28;19914;-77
2021/04/05 13:35:40;;;;;;;;;;;19.30;55.70;;;;;;4985725;28;20000;-77
2021/04/05 13:38:12;;;;;;;;;;;19.30;55.60;;;;;;4993519;28;20012;-77
2021/04/05 13:40:38;;;;;;;;;;;19.30;55.60;;;;;;4997710;28;19922;-77
2021/04/05 13:43:05;;;;;;;;;;;19.30;55.60;;;;;;5001405;28;19953;-77
2021/04/05 13:45:35;;;;;;;;;;;19.30;55.60;;;;;;5003453;28;20290;-77
2021/04/05 13:48:02;;;;;;;;;;;19.30;55.60;;;;;;4980409;28;19919;-77
2021/04/05 13:50:34;;;;;;;;;;;19.30;55.60;;;;;;4994774;28;20355;-77
2021/04/05 13:53:02;;;;;;;;;;;19.30;55.60;;;;;;5002419;28;19913;-76
2021/04/05 13:55:30;;;;;;;;;;;19.30;55.60;;;;;;4979835;28;20044;-77
2021/04/05 13:57:58;;;;;;;;;;;19.30;55.60;;;;;;5003587;28;19913;-77
2021/04/05 14:00:28;;;;;;;;;;;19.40;55.60;;;;;;4981963;28;19925;-77
2021/04/05 14:02:59;;;;;;;;;;;19.30;55.70;;;;;;4980380;28;19925;-77
2021/04/05 14:05:26;;;;;;;;;;;19.30;55.70;;;;;;4997990;28;19914;-77
2021/04/05 14:07:53;;;;;;;;;;;19.30;55.70;;;;;;5007600;28;19918;-77
2021/04/05 14:10:22;;;;;;;;;;;19.30;55.70;;;;;;4999719;28;19921;-78
2021/04/05 14:12:48;;;;;;;;;;;19.30;55.70;;;;;;4999090;28;19917;-77
2021/04/05 14:15:14;;;;;;;;;;;19.30;55.70;;;;;;4978981;28;19914;-77
2021/04/05 14:17:43;;;;;;;;;;;19.30;55.70;;;;;;5006972;28;19921;-77
2021/04/05 14:20:14;;;;;;;;;;;19.30;55.70;;;;;;4989797;28;19918;-78
2021/04/05 14:22:48;;;;;;;;;;;19.30;55.70;;;;;;4991515;28;19918;-78
2021/04/05 14:25:19;;;;;;;;;;;19.30;55.70;;;;;;4991239;28;19914;-77
2021/04/05 14:27:49;;;;;;;;;;;19.30;55.70;;;;;;5006470;28;20044;-78
2021/04/05 14:30:20;;;;;;;;;;;19.30;55.80;;;;;;5008603;28;20354;-77
2021/04/05 14:32:50;;;;;;;;;;;19.30;55.90;;;;;;4974403;28;19914;-77